sensor_id;sensor_type;location;lat;lon;timestamp;P1;durP1;ratioP1;P2;durP2;ratioP2
75516;SDS011;64097;52.548;13.406;2023-01-30T06:05:19;16.02;;;12.10;;
75516;SDS011;64097;52.548;13.406;2023-01-30T06:07:44;14.55;;;11.40;;
75516;SDS011;64097;52.548;13.406;2023-01-30T06:10:10;13.52;;;10.98;;
75516;SDS011;64097;52.548;13.406;2023-01-30T06:12:36;15.18;;;12.15;;
75516;SDS011;64097;52.548;13.406;2023-01-30T06:15:02;16.00;;;12.55;;
75516;SDS011;64097;52.548;13.406;2023-01-30T06:17:27;17.05;;;13.40;;
75516;SDS011;64097;52.548;13.406;2023-01-30T06:19:53;14.07;;;11.48;;
75516;SDS011;64097;52.548;13.406;2023-01-30T06:22:19;14.25;;;11.40;;
75516;SDS011;64097;52.548;13.406;2023-01-30T06:24:44;15.57;;;12.52;;
75516;SDS011;64097;52.548;13.406;2023-01-30T06:27:10;14.55;;;11.73;;
75516;SDS011;64097;52.548;13.406;2023-01-30T06:29:36;15.00;;;11.88;;
75516;SDS011;64097;52.548;13.406;2023-01-30T06:32:01;13.95;;;11.25;;
75516;SDS011;64097;52.548;13.406;2023-01-30T06:34:27;15.15;;;11.30;;
75516;SDS011;64097;52.548;13.406;2023-01-30T06:36:53;13.88;;;11.88;;
75516;SDS011;64097;52.548;13.406;2023-01-30T06:39:19;13.77;;;10.45;;
75516;SDS011;64097;52.548;13.406;2023-01-30T06:41:45;14.88;;;11.80;;
75516;SDS011;64097;52.548;13.406;2023-01-30T06:44:11;13.60;;;11.05;;
75516;SDS011;64097;52.548;13.406;2023-01-30T06:46:36;12.02;;;10.23;;
75516;SDS011;64097;52.548;13.406;2023-01-30T06:49:02;13.10;;;10.80;;
75516;SDS011;64097;52.548;13.406;2023-01-30T06:51:28;13.35;;;10.13;;
75516;SDS011;64097;52.548;13.406;2023-01-30T06:53:54;14.07;;;11.07;;
75516;SDS011;64097;52.548;13.406;2023-01-30T06:56:20;13.95;;;10.63;;
75516;SDS011;64097;52.548;13.406;2023-01-30T06:58:45;12.77;;;10.50;;
75516;SDS011;64097;52.548;13.406;2023-01-30T07:01:11;12.10;;;9.52;;
75516;SDS011;64097;52.548;13.406;2023-01-30T07:03:38;11.20;;;8.90;;
75516;SDS011;64097;52.548;13.406;2023-01-30T07:06:04;12.10;;;10.00;;
75516;SDS011;64097;52.548;13.406;2023-01-30T07:08:30;11.60;;;9.35;;
75516;SDS011;64097;52.548;13.406;2023-01-30T07:10:56;12.32;;;9.27;;
75516;SDS011;64097;52.548;13.406;2023-01-30T07:13:21;10.52;;;8.70;;
75516;SDS011;64097;52.548;13.406;2023-01-30T07:15:47;12.38;;;8.45;;
75516;SDS011;64097;52.548;13.406;2023-01-30T07:18:13;10.65;;;8.48;;
75516;SDS011;64097;52.548;13.406;2023-01-30T07:20:38;10.15;;;8.27;;
75516;SDS011;64097;52.548;13.406;2023-01-30T07:23:06;10.18;;;8.30;;
75516;SDS011;64097;52.548;13.406;2023-01-30T07:25:31;9.55;;;7.63;;
75516;SDS011;64097;52.548;13.406;2023-01-30T07:27:58;8.82;;;7.20;;
75516;SDS011;64097;52.548;13.406;2023-01-30T07:30:25;11.18;;;7.88;;
75516;SDS011;64097;52.548;13.406;2023-01-30T07:32:53;10.52;;;7.95;;
75516;SDS011;64097;52.548;13.406;2023-01-30T07:35:22;9.23;;;7.68;;
75516;SDS011;64097;52.548;13.406;2023-01-30T07:37:49;9.50;;;7.53;;
75516;SDS011;64097;52.548;13.406;2023-01-30T07:40:16;8.45;;;7.55;;
75516;SDS011;64097;52.548;13.406;2023-01-30T07:42:43;11.18;;;7.43;;
75516;SDS011;64097;52.548;13.406;2023-01-30T07:45:08;8.27;;;7.18;;
75516;SDS011;64097;52.548;13.406;2023-01-30T07:47:35;8.32;;;7.43;;
75516;SDS011;64097;52.548;13.406;2023-01-30T07:50:00;7.85;;;7.05;;
75516;SDS011;64097;52.548;13.406;2023-01-30T07:52:27;7.55;;;6.75;;
75516;SDS011;64097;52.548;13.406;2023-01-30T07:54:52;8.82;;;7.93;;
75516;SDS011;64097;52.548;13.406;2023-01-30T07:57:18;9.85;;;8.07;;
75516;SDS011;64097;52.548;13.406;2023-01-30T07:59:44;9.43;;;8.15;;
75516;SDS011;64097;52.548;13.406;2023-01-30T08:02:09;7.97;;;6.95;;
75516;SDS011;64097;52.548;13.406;2023-01-30T08:04:35;8.50;;;6.60;;
75516;SDS011;64097;52.548;13.406;2023-01-30T08:07:02;7.32;;;6.45;;
75516;SDS011;64097;52.548;13.406;2023-01-30T08:09:27;8.30;;;7.22;;
75516;SDS011;64097;52.548;13.406;2023-01-30T08:11:53;7.68;;;6.88;;
75516;SDS011;64097;52.548;13.406;2023-01-30T08:14:19;7.32;;;6.03;;
75516;SDS011;64097;52.548;13.406;2023-01-30T08:16:44;7.38;;;5.97;;
75516;SDS011;64097;52.548;13.406;2023-01-30T08:19:10;7.75;;;6.90;;
75516;SDS011;64097;52.548;13.406;2023-01-30T08:21:36;7.00;;;6.30;;
75516;SDS011;64097;52.548;13.406;2023-01-30T08:24:02;6.20;;;5.60;;
75516;SDS011;64097;52.548;13.406;2023-01-30T08:26:28;8.32;;;6.00;;
75516;SDS011;64097;52.548;13.406;2023-01-30T08:28:53;7.70;;;6.70;;
75516;SDS011;64097;52.548;13.406;2023-01-30T08:31:20;9.05;;;7.05;;
75516;SDS011;64097;52.548;13.406;2023-01-30T08:33:46;7.68;;;6.88;;
75516;SDS011;64097;52.548;13.406;2023-01-30T08:36:12;7.13;;;6.05;;
75516;SDS011;64097;52.548;13.406;2023-01-30T08:38:38;6.63;;;6.00;;
75516;SDS011;64097;52.548;13.406;2023-01-30T08:41:04;7.25;;;6.55;;
75516;SDS011;64097;52.548;13.406;2023-01-30T08:43:31;5.95;;;5.32;;
75516;SDS011;64097;52.548;13.406;2023-01-30T08:45:57;7.30;;;6.38;;
75516;SDS011;64097;52.548;13.406;2023-01-30T08:48:23;8.15;;;7.05;;
75516;SDS011;64097;52.548;13.406;2023-01-30T08:50:52;7.65;;;6.68;;
75516;SDS011;64097;52.548;13.406;2023-01-30T08:53:18;6.70;;;5.95;;
75516;SDS011;64097;52.548;13.406;2023-01-30T08:55:44;7.32;;;6.53;;
75516;SDS011;64097;52.548;13.406;2023-01-30T08:58:13;7.65;;;6.13;;
75516;SDS011;64097;52.548;13.406;2023-01-30T09:00:39;5.53;;;4.68;;
75516;SDS011;64097;52.548;13.406;2023-01-30T09:03:08;7.38;;;5.18;;
75516;SDS011;64097;52.548;13.406;2023-01-30T09:05:37;5.72;;;4.13;;
75516;SDS011;64097;52.548;13.406;2023-01-30T09:08:03;5.28;;;3.70;;
75516;SDS011;64097;52.548;13.406;2023-01-30T09:10:29;5.90;;;4.43;;
75516;SDS011;64097;52.548;13.406;2023-01-30T09:12:55;7.38;;;4.75;;
75516;SDS011;64097;52.548;13.406;2023-01-30T09:15:21;4.82;;;4.30;;
75516;SDS011;64097;52.548;13.406;2023-01-30T09:17:47;5.32;;;3.85;;
75516;SDS011;64097;52.548;13.406;2023-01-30T09:20:13;4.78;;;4.03;;
75516;SDS011;64097;52.548;13.406;2023-01-30T09:22:40;5.93;;;4.15;;
75516;SDS011;64097;52.548;13.406;2023-01-30T09:25:06;5.28;;;4.15;;
75516;SDS011;64097;52.548;13.406;2023-01-30T09:27:32;5.05;;;3.85;;
75516;SDS011;64097;52.548;13.406;2023-01-30T09:29:58;5.30;;;3.60;;
75516;SDS011;64097;52.548;13.406;2023-01-30T09:32:23;3.15;;;2.85;;
75516;SDS011;64097;52.548;13.406;2023-01-30T09:34:49;3.42;;;2.63;;
75516;SDS011;64097;52.548;13.406;2023-01-30T09:37:15;4.25;;;3.00;;
75516;SDS011;64097;52.548;13.406;2023-01-30T09:39:41;4.30;;;3.00;;
75516;SDS011;64097;52.548;13.406;2023-01-30T09:50:52;4.03;;;2.45;;
75516;SDS011;64097;52.548;13.406;2023-01-30T09:53:35;6.07;;;2.33;;
75516;SDS011;64097;52.548;13.406;2023-01-30T09:56:11;4.60;;;2.20;;
75516;SDS011;64097;52.548;13.406;2023-01-30T10:01:21;6.07;;;2.38;;
75516;SDS011;64097;52.548;13.406;2023-01-30T10:04:05;2.78;;;1.50;;
75516;SDS011;64097;52.548;13.406;2023-01-30T10:07:03;4.45;;;1.58;;
75516;SDS011;64097;52.548;13.406;2023-01-30T10:27:12;5.47;;;1.65;;
75516;SDS011;64097;52.548;13.406;2023-01-30T10:29:41;6.53;;;1.70;;
75516;SDS011;64097;52.548;13.406;2023-01-30T10:32:22;8.15;;;1.83;;
75516;SDS011;64097;52.548;13.406;2023-01-30T10:34:54;5.90;;;1.70;;
75516;SDS011;64097;52.548;13.406;2023-01-30T10:43:15;5.32;;;1.58;;
75516;SDS011;64097;52.548;13.406;2023-01-30T10:54:27;5.85;;;1.92;;
75516;SDS011;64097;52.548;13.406;2023-01-30T11:00:09;7.80;;;2.72;;
75516;SDS011;64097;52.548;13.406;2023-01-30T11:05:14;9.27;;;2.30;;
75516;SDS011;64097;52.548;13.406;2023-01-30T11:07:44;6.72;;;1.92;;
75516;SDS011;64097;52.548;13.406;2023-01-30T11:10:21;7.47;;;2.10;;
75516;SDS011;64097;52.548;13.406;2023-01-30T11:12:59;7.85;;;1.77;;
75516;SDS011;64097;52.548;13.406;2023-01-30T11:15:40;6.53;;;1.70;;
75516;SDS011;64097;52.548;13.406;2023-01-30T11:18:08;8.10;;;2.17;;
75516;SDS011;64097;52.548;13.406;2023-01-30T11:20:41;9.18;;;2.60;;
75516;SDS011;64097;52.548;13.406;2023-01-30T11:25:55;7.25;;;2.17;;
75516;SDS011;64097;52.548;13.406;2023-01-30T11:28:23;8.35;;;2.20;;
75516;SDS011;64097;52.548;13.406;2023-01-30T11:30:56;8.07;;;2.13;;
75516;SDS011;64097;52.548;13.406;2023-01-30T11:33:30;6.60;;;2.08;;
75516;SDS011;64097;52.548;13.406;2023-01-30T11:36:02;9.88;;;2.25;;
75516;SDS011;64097;52.548;13.406;2023-01-30T11:38:31;10.70;;;2.40;;
75516;SDS011;64097;52.548;13.406;2023-01-30T11:43:31;7.28;;;2.30;;
75516;SDS011;64097;52.548;13.406;2023-01-30T11:45:58;7.03;;;1.85;;
75516;SDS011;64097;52.548;13.406;2023-01-30T11:48:26;7.55;;;2.13;;
75516;SDS011;64097;52.548;13.406;2023-01-30T11:50:57;8.13;;;2.08;;
75516;SDS011;64097;52.548;13.406;2023-01-30T11:56:03;6.72;;;1.92;;
75516;SDS011;64097;52.548;13.406;2023-01-30T11:58:55;8.20;;;2.00;;
75516;SDS011;64097;52.548;13.406;2023-01-30T12:01:34;7.40;;;2.25;;
75516;SDS011;64097;52.548;13.406;2023-01-30T12:04:01;6.18;;;1.58;;
75516;SDS011;64097;52.548;13.406;2023-01-30T12:06:36;5.50;;;1.58;;
75516;SDS011;64097;52.548;13.406;2023-01-30T12:09:04;5.03;;;1.73;;
75516;SDS011;64097;52.548;13.406;2023-01-30T12:14:15;5.85;;;1.80;;
75516;SDS011;64097;52.548;13.406;2023-01-30T12:22:15;6.00;;;2.03;;
75516;SDS011;64097;52.548;13.406;2023-01-30T12:24:59;7.40;;;2.67;;
75516;SDS011;64097;52.548;13.406;2023-01-30T12:30:20;9.02;;;2.90;;
75516;SDS011;64097;52.548;13.406;2023-01-30T12:33:00;5.80;;;2.17;;
75516;SDS011;64097;52.548;13.406;2023-01-30T12:35:33;5.32;;;2.03;;
75516;SDS011;64097;52.548;13.406;2023-01-30T12:38:20;6.20;;;1.98;;
75516;SDS011;64097;52.548;13.406;2023-01-30T12:49:23;9.02;;;2.35;;
75516;SDS011;64097;52.548;13.406;2023-01-30T12:58:05;7.50;;;2.28;;
75516;SDS011;64097;52.548;13.406;2023-01-30T13:06:24;7.20;;;2.00;;
75516;SDS011;64097;52.548;13.406;2023-01-30T13:09:19;6.32;;;2.05;;
75516;SDS011;64097;52.548;13.406;2023-01-30T13:12:15;6.88;;;2.00;;
75516;SDS011;64097;52.548;13.406;2023-01-30T13:22:58;8.10;;;2.40;;
75516;SDS011;64097;52.548;13.406;2023-01-30T13:25:37;5.22;;;1.95;;
75516;SDS011;64097;52.548;13.406;2023-01-30T13:28:29;7.85;;;2.13;;
75516;SDS011;64097;52.548;13.406;2023-01-30T13:31:03;6.22;;;1.95;;
75516;SDS011;64097;52.548;13.406;2023-01-30T13:33:37;7.30;;;2.25;;
75516;SDS011;64097;52.548;13.406;2023-01-30T13:41:57;5.53;;;1.70;;
75516;SDS011;64097;52.548;13.406;2023-01-30T13:44:27;6.03;;;1.98;;
75516;SDS011;64097;52.548;13.406;2023-01-30T13:47:10;5.35;;;1.60;;
75516;SDS011;64097;52.548;13.406;2023-01-30T13:49:54;5.90;;;1.73;;
